Weather observations for the past three days for
Schenectady Airport
| Date | Time (edt) | Wind (kph) | Vis. (km) | Weather | Sky Cond. | Temperature (ºC) | Relative Humidity | Wind Chill (°C) | Heat Index (°C) | Pressure | Precipitation (cm) | ||||||
|---|---|---|---|---|---|---|---|---|---|---|---|---|---|---|---|---|---|
| Air | Dwpt | 6 hour | altimeter (cm) | sea level (mb) | 1 hr | 3 hr | 6 hr | ||||||||||
| Max. | Min. | ||||||||||||||||
| 04 | 10:45 | W 19 | 16.09 | Fair | CLR | 24 | 17 | 65% | 25 | 75.97 | 0.0 | ||||||
| 04 | 09:53 | W 17 G 26 | 16.09 | Fair | CLR | 23 | 17 | 69% | 75.95 | 0.0 | |||||||
| 04 | 08:45 | NW 19 | 16.09 | Fair | CLR | 21 | 17 | 78% | 75.95 | 0.0 | |||||||
| 04 | 07:45 | W 19 | 16.09 | Mostly Cloudy | BKN048 | 19 | 17 | 88% | 75.95 | 0.0 | |||||||
| 03 | 21:45 | Calm | 16.09 | Fair | CLR | 21 | 18 | 83% | 75.97 | 0.0 | |||||||
| 03 | 20:55 | Calm | 16.09 | Fair | CLR | 22 | 18 | 78% | 75.97 | 0.0 | |||||||
| 03 | 18:53 | Vrbl 6 | 16.09 | Fair | CLR | 26 | 17 | 58% | 27 | 75.92 | 0.0 | ||||||
| 03 | 17:47 | W 13 | 16.09 | Fair | CLR | 28 | 17 | 51% | 29 | 75.9 | 0.0 | ||||||
| 03 | 16:45 | W 19 G 28 | 16.09 | Fair | CLR | 28 | 17 | 51% | 29 | 75.92 | 0.0 | ||||||
| 03 | 15:45 | W 19 | 16.09 | Fair | CLR | 28 | 19 | 58% | 29 | 75.95 | 0.0 | ||||||
| 03 | 13:45 | SW 6 | 16.09 | Overcast | BKN021 BKN027 OVC046 | 27 | 20 | 66% | 29 | 75.97 | 0.0 | ||||||
| 03 | 12:45 | S 6 | 16.09 | Overcast | OVC023 | 24 | 21 | 83% | 24 | 76 | 0.0 | ||||||
| 03 | 10:48 | Calm | 16.09 | Overcast | SCT010 OVC027 | 23 | 20 | 83% | 76.05 | 0.0 | |||||||
| 03 | 09:53 | Calm | 16.09 | Overcast | SCT006 BKN023 OVC040 | 22 | 20 | 88% | 76.05 | 0.0 | |||||||
| 03 | 08:50 | S 7 | 16.09 | Overcast | OVC006 | 20 | 19 | 94% | 76.07 | 0.0 | |||||||
| 03 | 07:45 | Calm | 16.09 | Overcast | OVC004 | 19 | 19 | 100% | 76.07 | 0.0 | |||||||
| 02 | 21:57 | S 19 G 31 | 16.09 | Overcast | OVC030 | 19 | 16 | 83% | 76.3 | 0.0 | |||||||
| 02 | 19:55 | S 15 G 28 | 16.09 | Overcast | OVC030 | 20 | 16 | 78% | 76.28 | 0.0 | |||||||
| 02 | 18:59 | S 9 | 16.09 | Overcast | SCT013 OVC018 | 20 | 16 | 78% | 76.35 | 0.0 | |||||||
| 02 | 14:45 | S 9 | 16.09 | Mostly Cloudy | BKN022 BKN120 | 22 | 16 | 69% | 76.48 | 0.0 | |||||||
| 02 | 13:47 | S 13 | 16.09 | Overcast | OVC024 | 19 | 15 | 78% | 76.5 | 0.0 | |||||||
| 02 | 12:47 | S 9 | 16.09 | Overcast | OVC022 | 20 | 15 | 73% | 76.53 | 0.0 | |||||||
| 02 | 11:46 | S 13 | 16.09 | Overcast | OVC020 | 20 | 15 | 73% | 76.56 | 0.0 | |||||||
| 02 | 10:46 | S 7 | 16.09 | Overcast | OVC020 | 19 | 14 | 73% | 76.56 | 0.0 | |||||||
| 02 | 09:46 | S 13 | 16.09 | Overcast | OVC020 | 19 | 15 | 78% | 76.56 | 0.0 | |||||||
| 02 | 08:46 | S 11 | 16.09 | Overcast | SCT013 OVC018 | 18 | 17 | 94% | 76.53 | 0.0 | |||||||
| 02 | 07:45 | S 7 | 16.09 | Overcast | OVC015 | 18 | 17 | 94% | 76.53 | 0.0 | |||||||
| 01 | 21:59 | S 6 | 4.02 | Light Drizzle | SCT006 BKN014 OVC019 | 19 | 19 | 100% | 76.35 | 0.0 | |||||||
| 01 | 19:50 | Calm | 16.09 | Overcast | OVC018 | 21 | 20 | 94% | 76.25 | 0.0 | |||||||
| 01 | 16:54 | N 9 | 16.09 | Overcast | OVC020 | 22 | 20 | 88% | 76.23 | 0.0 | |||||||
| 01 | 14:45 | NE 15 | 16.09 | Overcast | OVC011 | 21 | 21 | 100% | 76.2 | 0.0 | |||||||
| 01 | 13:45 | NE 9 | 8.05 | Overcast | OVC007 | 21 | 21 | 100% | 76.2 | 0.0 | |||||||
| 01 | 11:46 | Calm | 8.05 | Overcast | BKN005 OVC011 | 21 | 21 | 100% | 76.2 | 0.0 | |||||||
| Date | Time (edt) | Wind (kph) | Vis. (km) | Weather | Sky Cond. | Air | Dwpt | Max. | Min. | Relative Humidity | Wind Chill (°C) | Heat Index (°C) | altimeter (cm) | sea level (mb) | 1 hr | 3 hr | 6 hr |
| 6 hour | |||||||||||||||||
| Temperature (ºC) | Pressure | Precipitation (cm) | |||||||||||||||